Time;durP1;ratioP1;P1;durP2;ratioP2;P2;SDS_P1;SDS_P2;PMS_P1;PMS_P2;Temp;Humidity;BMP_temperature;BMP_pressure;BME280_temperature;BME280_humidity;BME280_pressure;Samples;Min_cycle;Max_cycle;Signal;HPM_P1;HPM_P2
2021/12/23 00:01:48;;;;;;;16.48;13.43;;;7.50;99.90;;;;;;5068180;28;20032;-56
2021/12/23 00:04:14;;;;;;;20.20;14.38;;;7.70;99.90;;;;;;5067544;28;20457;-56
2021/12/23 00:06:41;;;;;;;17.27;14.20;;;7.60;99.90;;;;;;5067920;28;20048;-56
2021/12/23 00:09:07;;;;;;;15.90;13.45;;;7.60;99.90;;;;;;5066890;28;20032;-57
2021/12/23 00:11:33;;;;;;;18.05;14.10;;;7.60;99.90;;;;;;5068595;28;20029;-57
2021/12/23 00:14:04;;;;;;;16.50;13.38;;;7.70;99.90;;;;;;5067951;28;20025;-56
2021/12/23 00:19:22;;;;;;;17.80;12.82;;;7.60;99.90;;;;;;5068164;28;20033;-56
2021/12/23 00:24:33;;;;;;;19.13;13.40;;;7.30;99.90;;;;;;5069442;28;20035;-56
2021/12/23 00:26:59;;;;;;;19.20;13.73;;;7.40;99.90;;;;;;5066620;28;20029;-56
2021/12/23 00:29:25;;;;;;;16.92;13.35;;;7.40;99.90;;;;;;5066593;28;20029;-54
2021/12/23 00:31:51;;;;;;;18.98;13.52;;;7.40;99.90;;;;;;5068285;28;20021;-57
2021/12/23 00:34:17;;;;;;;16.23;13.43;;;7.40;99.90;;;;;;5051505;28;20037;-57
2021/12/23 00:36:45;;;;;;;19.98;13.77;;;7.50;99.90;;;;;;5070669;28;20017;-56
2021/12/23 00:39:12;;;;;;;15.90;12.73;;;7.40;99.90;;;;;;5066858;28;20111;-57
2021/12/23 00:41:38;;;;;;;17.23;13.38;;;7.50;99.90;;;;;;5066983;28;20036;-57
2021/12/23 00:44:04;;;;;;;17.00;13.05;;;7.40;99.90;;;;;;5066710;28;20389;-56
2021/12/23 00:46:29;;;;;;;17.85;13.27;;;7.30;99.90;;;;;;5069954;28;20032;-56
2021/12/23 00:48:55;;;;;;;15.63;13.18;;;7.20;99.90;;;;;;5072899;28;20368;-57
2021/12/23 00:51:21;;;;;;;17.20;13.05;;;7.20;99.90;;;;;;5073133;28;20025;-57
2021/12/23 00:53:50;;;;;;;15.75;12.60;;;7.40;99.90;;;;;;5070550;28;20407;-57
2021/12/23 00:56:15;;;;;;;16.65;12.60;;;7.30;99.90;;;;;;5071609;28;20033;-57
2021/12/23 00:58:41;;;;;;;18.08;13.65;;;7.30;99.90;;;;;;5070686;28;20394;-57
2021/12/23 01:01:08;;;;;;;14.80;13.30;;;7.10;99.90;;;;;;5071409;28;20068;-56
2021/12/23 01:03:34;;;;;;;15.70;13.05;;;7.10;99.90;;;;;;5072777;28;20044;-56
2021/12/23 01:06:00;;;;;;;19.48;13.27;;;7.20;99.90;;;;;;5069714;28;20068;-56
2021/12/23 01:08:26;;;;;;;19.30;13.93;;;7.20;99.90;;;;;;5070626;28;20017;-56
2021/12/23 01:10:56;;;;;;;16.90;14.13;;;7.10;99.90;;;;;;5070192;28;20436;-57
2021/12/23 01:13:26;;;;;;;19.98;13.82;;;7.10;99.90;;;;;;5054733;28;20078;-54
2021/12/23 01:16:02;;;;;;;19.35;13.98;;;7.20;99.90;;;;;;5073380;28;20036;-57
2021/12/23 01:18:38;;;;;;;18.73;14.77;;;7.10;99.90;;;;;;5073513;28;20482;-56
2021/12/23 01:21:16;;;;;;;17.95;13.00;;;7.20;99.90;;;;;;5071497;28;20500;-57
2021/12/23 01:23:46;;;;;;;17.48;13.00;;;7.00;99.90;;;;;;5070367;28;20035;-56
2021/12/23 01:26:19;;;;;;;20.85;13.77;;;7.20;99.90;;;;;;5071618;28;20032;-57
2021/12/23 01:28:49;;;;;;;15.77;13.37;;;7.10;99.90;;;;;;5070255;28;20390;-56
2021/12/23 01:31:15;;;;;;;15.60;12.88;;;7.20;99.90;;;;;;5070538;28;20029;-57
2021/12/23 01:33:41;;;;;;;18.13;13.07;;;7.20;99.90;;;;;;5073077;28;20055;-56
2021/12/23 01:36:07;;;;;;;15.60;12.65;;;7.20;99.90;;;;;;5071122;28;20038;-57
2021/12/23 01:38:32;;;;;;;15.20;13.10;;;7.00;99.90;;;;;;5069899;28;20025;-57
2021/12/23 01:40:58;;;;;;;18.10;13.23;;;7.10;99.90;;;;;;5069562;28;20350;-56
2021/12/23 01:43:24;;;;;;;17.35;13.07;;;7.20;99.90;;;;;;5069809;28;20086;-57
2021/12/23 01:45:50;;;;;;;19.30;13.45;;;7.00;99.90;;;;;;5073011;28;20449;-57
2021/12/23 01:48:17;;;;;;;18.67;14.10;;;7.10;99.90;;;;;;5071429;28;20051;-57
2021/12/23 01:50:43;;;;;;;17.90;13.27;;;7.00;99.90;;;;;;5069413;28;20039;-56
2021/12/23 01:53:09;;;;;;;15.88;12.98;;;7.00;99.90;;;;;;5069729;28;20487;-57
2021/12/23 01:55:36;;;;;;;15.38;12.60;;;7.10;99.90;;;;;;5069449;28;20028;-56
2021/12/23 01:58:04;;;;;;;19.63;13.20;;;7.00;99.90;;;;;;5070435;28;20033;-57
2021/12/23 02:00:33;;;;;;;20.08;12.60;;;7.00;99.90;;;;;;5071366;28;20123;-56
2021/12/23 02:02:59;;;;;;;16.52;13.18;;;7.00;99.90;;;;;;5068716;28;20028;-57
2021/12/23 02:05:25;;;;;;;16.55;12.75;;;7.00;99.90;;;;;;5069412;28;20051;-56
2021/12/23 02:07:50;;;;;;;19.02;12.88;;;7.00;99.90;;;;;;5071055;28;20020;-56
2021/12/23 02:10:16;;;;;;;19.00;13.55;;;7.00;99.90;;;;;;5069618;28;20052;-56
2021/12/23 02:12:44;;;;;;;17.80;13.05;;;6.90;99.90;;;;;;5072785;28;20024;-56
2021/12/23 02:15:11;;;;;;;16.63;13.98;;;6.90;99.90;;;;;;5070348;28;20275;-50
2021/12/23 02:17:38;;;;;;;17.98;14.38;;;6.90;99.90;;;;;;5068710;28;20403;-56
2021/12/23 02:20:06;;;;;;;21.40;13.35;;;6.90;99.90;;;;;;5068934;28;20032;-56
2021/12/23 02:22:32;;;;;;;17.05;12.75;;;6.90;99.90;;;;;;5069067;28;20116;-56
2021/12/23 02:24:58;;;;;;;17.88;13.35;;;7.00;99.90;;;;;;5071330;28;20481;-56
2021/12/23 02:27:24;;;;;;;16.25;12.52;;;7.00;99.90;;;;;;5070429;28;20024;-57
2021/12/23 02:29:49;;;;;;;15.45;12.95;;;7.00;99.90;;;;;;5069146;28;20368;-56
2021/12/23 02:32:15;;;;;;;14.35;12.80;;;7.00;99.90;;;;;;5068314;28;20066;-56
2021/12/23 02:34:41;;;;;;;18.63;13.18;;;6.80;99.90;;;;;;5068632;28;20514;-54
2021/12/23 02:37:07;;;;;;;20.17;13.98;;;6.90;99.90;;;;;;5070169;28;20033;-56
2021/12/23 02:39:33;;;;;;;16.75;13.60;;;6.90;99.90;;;;;;5072524;28;20047;-56
2021/12/23 02:41:59;;;;;;;18.25;13.73;;;6.90;99.90;;;;;;5068211;28;20028;-55
2021/12/23 02:44:25;;;;;;;19.85;12.48;;;6.80;99.90;;;;;;5068792;28;20028;-56
2021/12/23 02:46:51;;;;;;;14.60;12.18;;;6.90;99.90;;;;;;5068307;28;20016;-56
2021/12/23 02:49:18;;;;;;;17.05;12.80;;;7.00;99.90;;;;;;5068804;28;20726;-56
2021/12/23 02:51:43;;;;;;;19.38;13.07;;;6.80;99.90;;;;;;5072215;28;20040;-54
2021/12/23 02:54:09;;;;;;;18.83;12.98;;;6.70;99.90;;;;;;5069539;28;20028;-56
2021/12/23 02:56:35;;;;;;;18.23;13.52;;;6.70;99.90;;;;;;5069627;28;20036;-55
2021/12/23 02:59:01;;;;;;;18.40;13.88;;;6.70;99.90;;;;;;5067982;28;20041;-56
2021/12/23 03:01:27;;;;;;;17.65;13.63;;;6.70;99.90;;;;;;5067995;28;20443;-57
2021/12/23 03:03:53;;;;;;;15.95;13.23;;;6.70;99.90;;;;;;5071535;28;20103;-55
2021/12/23 03:06:21;;;;;;;18.35;13.65;;;6.70;99.90;;;;;;5069253;28;20115;-57
2021/12/23 03:08:50;;;;;;;18.58;13.38;;;6.70;99.90;;;;;;5067934;28;20060;-56
2021/12/23 03:11:18;;;;;;;17.77;13.10;;;6.80;99.90;;;;;;5067745;28;20029;-57
2021/12/23 03:13:45;;;;;;;16.85;13.02;;;6.90;99.90;;;;;;5068091;28;20108;-55
2021/12/23 03:16:17;;;;;;;17.85;14.02;;;6.70;99.90;;;;;;5069623;28;20090;-56
2021/12/23 03:18:43;;;;;;;17.95;13.73;;;6.80;99.90;;;;;;5071856;28;20021;-54
2021/12/23 03:21:09;;;;;;;18.17;13.25;;;6.70;99.90;;;;;;5067853;28;20035;-55
2021/12/23 03:23:35;;;;;;;17.02;13.77;;;6.70;99.90;;;;;;5068156;28;20479;-56
2021/12/23 03:26:04;;;;;;;18.23;13.77;;;6.80;99.90;;;;;;5067586;28;20150;-56
2021/12/23 03:28:30;;;;;;;16.58;13.50;;;6.70;99.90;;;;;;5067894;28;20017;-56
2021/12/23 03:30:55;;;;;;;18.75;14.18;;;6.80;99.90;;;;;;5070575;28;20025;-55
2021/12/23 03:33:21;;;;;;;17.73;13.50;;;6.70;99.90;;;;;;5068821;28;20071;-56
2021/12/23 03:35:47;;;;;;;17.55;13.63;;;6.80;99.90;;;;;;5068090;28;20108;-56
2021/12/23 03:38:14;;;;;;;17.17;13.63;;;6.80;99.90;;;;;;5067661;28;20063;-55
2021/12/23 03:40:40;;;;;;;15.60;13.90;;;6.70;99.90;;;;;;5067531;28;20044;-56
2021/12/23 03:43:06;;;;;;;16.70;13.80;;;6.70;99.90;;;;;;5069578;28;20066;-56
2021/12/23 03:45:32;;;;;;;19.58;14.75;;;6.70;99.90;;;;;;5070521;28;20036;-55
2021/12/23 03:47:58;;;;;;;18.65;13.82;;;6.60;99.90;;;;;;5067611;28;20086;-55
2021/12/23 03:50:25;;;;;;;19.88;13.70;;;6.60;99.90;;;;;;5067475;28;20055;-57
2021/12/23 03:52:52;;;;;;;17.45;13.88;;;6.60;99.90;;;;;;5067663;28;20570;-56
2021/12/23 03:55:18;;;;;;;15.70;13.75;;;6.60;99.90;;;;;;5068887;28;20045;-56
2021/12/23 03:57:46;;;;;;;17.27;12.98;;;6.60;99.90;;;;;;5071456;28;20028;-56
2021/12/23 04:00:15;;;;;;;18.52;13.93;;;6.60;99.90;;;;;;5067465;28;20032;-56
2021/12/23 04:02:41;;;;;;;18.33;13.50;;;6.60;99.90;;;;;;5067308;28;20449;-56
2021/12/23 04:05:08;;;;;;;20.20;13.52;;;6.60;99.90;;;;;;5068896;28;20029;-56
2021/12/23 04:07:34;;;;;;;18.75;13.75;;;6.50;99.90;;;;;;5067319;28;20009;-55
2021/12/23 04:10:00;;;;;;;20.60;13.40;;;6.50;99.90;;;;;;5069648;28;20557;-56
2021/12/23 04:12:26;;;;;;;16.30;12.73;;;6.60;99.90;;;;;;5068527;28;20016;-56
2021/12/23 04:14:52;;;;;;;18.90;13.52;;;6.60;99.90;;;;;;5067257;28;20041;-55
2021/12/23 04:17:17;;;;;;;20.73;13.88;;;6.70;99.90;;;;;;5066976;28;20035;-54
2021/12/23 04:19:46;;;;;;;18.02;13.30;;;6.60;99.90;;;;;;5067771;28;20040;-54
2021/12/23 04:22:12;;;;;;;19.05;12.95;;;6.60;99.90;;;;;;5072140;28;20067;-56
2021/12/23 04:24:38;;;;;;;18.05;13.57;;;6.60;99.90;;;;;;5069262;28;20031;-56
2021/12/23 04:27:04;;;;;;;17.60;13.52;;;6.50;99.90;;;;;;5070142;28;20036;-56
2021/12/23 04:29:30;;;;;;;18.95;13.90;;;6.60;99.90;;;;;;5070645;28;20054;-55
2021/12/23 04:31:56;;;;;;;19.02;13.55;;;6.60;99.90;;;;;;5070659;28;20024;-56
2021/12/23 04:34:22;;;;;;;21.70;14.68;;;6.50;99.90;;;;;;5072182;28;20060;-54
2021/12/23 04:36:47;;;;;;;20.13;14.57;;;6.50;99.90;;;;;;5075070;28;20028;-55
2021/12/23 04:39:13;;;;;;;18.10;13.55;;;6.50;99.90;;;;;;5070723;28;20043;-55
2021/12/23 04:41:39;;;;;;;21.80;13.90;;;6.60;99.90;;;;;;5069506;28;20036;-54
2021/12/23 04:44:06;;;;;;;17.67;13.80;;;6.60;99.90;;;;;;5072320;28;20031;-56
2021/12/23 04:46:32;;;;;;;19.77;13.73;;;6.50;99.90;;;;;;5070483;28;20121;-56
2021/12/23 04:48:58;;;;;;;18.92;13.93;;;6.60;99.90;;;;;;5073477;28;20430;-56
2021/12/23 04:51:24;;;;;;;17.10;13.68;;;6.60;99.90;;;;;;5072638;28;20027;-56
2021/12/23 04:53:50;;;;;;;16.42;13.57;;;6.50;99.90;;;;;;5070657;28;20094;-56
2021/12/23 04:56:18;;;;;;;19.92;13.38;;;6.60;99.90;;;;;;5070183;28;20028;-56
2021/12/23 04:58:44;;;;;;;20.17;13.85;;;6.60;99.90;;;;;;5070532;28;20052;-56
2021/12/23 05:01:19;;;;;;;16.85;13.50;;;6.50;99.90;;;;;;5072215;28;20453;-56
2021/12/23 05:03:47;;;;;;;18.90;14.02;;;6.50;99.90;;;;;;5074107;28;20078;-58
2021/12/23 05:06:16;;;;;;;18.33;13.93;;;6.50;99.90;;;;;;5070753;28;20041;-55
2021/12/23 05:08:42;;;;;;;18.83;13.68;;;6.50;99.90;;;;;;5070153;28;20651;-56
2021/12/23 05:11:08;;;;;;;19.63;13.43;;;6.50;99.90;;;;;;5069858;28;20032;-56
2021/12/23 05:13:34;;;;;;;20.05;14.07;;;6.60;99.90;;;;;;5071840;28;20044;-55
2021/12/23 05:16:00;;;;;;;18.80;14.18;;;6.60;99.90;;;;;;5072617;28;20059;-55
2021/12/23 05:18:25;;;;;;;20.52;13.82;;;6.50;99.90;;;;;;5072153;28;20021;-55
2021/12/23 05:20:51;;;;;;;18.98;14.10;;;6.50;99.90;;;;;;5070533;28;20049;-56
2021/12/23 05:23:17;;;;;;;20.23;13.98;;;6.50;99.90;;;;;;5071228;28;20111;-55
2021/12/23 05:25:43;;;;;;;22.67;14.00;;;6.40;99.90;;;;;;5069644;28;20036;-56
2021/12/23 05:28:09;;;;;;;18.98;13.05;;;6.50;99.90;;;;;;5072084;28;20364;-55
2021/12/23 05:30:35;;;;;;;15.65;13.30;;;6.50;99.90;;;;;;5072102;28;20523;-56
2021/12/23 05:33:01;;;;;;;19.88;14.05;;;6.50;99.90;;;;;;5068820;28;20045;-52
2021/12/23 05:35:26;;;;;;;16.77;14.00;;;6.50;99.90;;;;;;5069886;28;20033;-56
2021/12/23 05:37:53;;;;;;;19.38;14.18;;;6.60;99.90;;;;;;5069969;28;20082;-56
2021/12/23 05:40:22;;;;;;;17.23;13.95;;;6.60;99.90;;;;;;5053832;28;20111;-54
2021/12/23 05:42:49;;;;;;;17.75;13.60;;;6.60;99.90;;;;;;5069922;28;20016;-56
2021/12/23 05:45:15;;;;;;;20.40;13.95;;;6.60;99.90;;;;;;5069576;28;20474;-54
2021/12/23 05:47:42;;;;;;;20.33;14.25;;;6.50;99.90;;;;;;5069546;28;20020;-55
2021/12/23 05:50:10;;;;;;;20.13;14.23;;;6.60;99.90;;;;;;5069969;28;20028;-56
2021/12/23 05:52:36;;;;;;;17.45;13.35;;;6.50;99.90;;;;;;5069837;28;20495;-55
2021/12/23 05:55:05;;;;;;;19.38;13.65;;;6.50;99.90;;;;;;5071616;28;20040;-56
2021/12/23 05:57:31;;;;;;;16.67;13.82;;;6.50;99.90;;;;;;5071498;28;20032;-55
2021/12/23 05:59:57;;;;;;;18.70;13.77;;;6.60;99.90;;;;;;5069209;28;20041;-54
2021/12/23 06:02:23;;;;;;;17.33;13.60;;;6.60;99.90;;;;;;5071066;28;20031;-56
2021/12/23 06:04:48;;;;;;;18.15;13.50;;;6.50;99.90;;;;;;5069279;28;20033;-54
2021/12/23 06:07:14;;;;;;;19.55;13.82;;;6.50;99.90;;;;;;5069248;28;20398;-56
2021/12/23 06:09:40;;;;;;;18.40;14.40;;;6.50;99.90;;;;;;5071953;28;20661;-54
2021/12/23 06:12:06;;;;;;;18.70;14.15;;;6.40;99.90;;;;;;5069144;28;20025;-54
2021/12/23 06:14:31;;;;;;;21.13;14.68;;;6.40;99.90;;;;;;5067755;28;20107;-55
2021/12/23 06:16:57;;;;;;;16.70;13.23;;;6.30;99.90;;;;;;5068939;28;20093;-54
2021/12/23 06:19:23;;;;;;;17.52;13.52;;;6.50;99.90;;;;;;5068844;28;20561;-54
2021/12/23 06:21:49;;;;;;;16.85;13.52;;;6.50;99.90;;;;;;5073314;28;20028;-55
2021/12/23 06:24:14;;;;;;;16.52;12.77;;;6.50;99.90;;;;;;5068531;28;20391;-55
2021/12/23 06:26:40;;;;;;;16.70;13.95;;;6.60;99.90;;;;;;5068999;28;20036;-56
2021/12/23 06:29:06;;;;;;;18.17;13.93;;;6.50;99.90;;;;;;5068772;28;20082;-56
2021/12/23 06:31:32;;;;;;;19.25;13.60;;;6.50;99.90;;;;;;5070337;28;20510;-54
2021/12/23 06:33:57;;;;;;;19.63;14.68;;;6.50;99.90;;;;;;5071330;28;20041;-54
2021/12/23 06:36:23;;;;;;;18.63;13.60;;;6.40;99.90;;;;;;5070532;28;20032;-56
2021/12/23 06:38:49;;;;;;;18.08;13.90;;;6.40;99.90;;;;;;5068219;28;20025;-55
2021/12/23 06:41:17;;;;;;;17.33;14.23;;;6.40;99.90;;;;;;5071027;28;20515;-55
2021/12/23 06:43:43;;;;;;;18.63;13.70;;;6.40;99.90;;;;;;5068043;28;20019;-55
2021/12/23 06:46:09;;;;;;;17.10;13.02;;;6.50;99.90;;;;;;5070609;28;20094;-56
2021/12/23 06:48:35;;;;;;;20.15;14.32;;;6.50;99.90;;;;;;5070752;28;20028;-54
2021/12/23 06:51:01;;;;;;;19.00;14.45;;;6.40;99.90;;;;;;5068223;28;20032;-52
2021/12/23 06:53:27;;;;;;;18.50;14.40;;;6.40;99.90;;;;;;5068023;28;20025;-55
2021/12/23 06:55:55;;;;;;;18.88;14.23;;;6.40;99.90;;;;;;5068786;28;20020;-54
2021/12/23 06:58:25;;;;;;;17.77;14.10;;;6.40;99.90;;;;;;5052405;28;20028;-53
2021/12/23 07:00:52;;;;;;;18.63;13.98;;;6.30;99.90;;;;;;5068425;28;20503;-54
2021/12/23 07:03:17;;;;;;;19.25;14.32;;;6.40;99.90;;;;;;5070124;28;20031;-55
2021/12/23 07:05:43;;;;;;;19.92;14.65;;;6.40;99.90;;;;;;5068089;28;20016;-56
2021/12/23 07:08:25;;;;;;;19.13;13.80;;;6.50;99.90;;;;;;5067887;28;20036;-56
2021/12/23 07:10:51;;;;;;;18.73;14.45;;;6.40;99.90;;;;;;5069531;28;20025;-55
2021/12/23 07:13:17;;;;;;;19.95;14.35;;;6.50;99.90;;;;;;5068752;28;20392;-55
2021/12/23 07:15:43;;;;;;;22.02;15.20;;;6.40;99.90;;;;;;5071302;28;20037;-55
2021/12/23 07:18:08;;;;;;;24.52;15.77;;;6.40;99.90;;;;;;5068125;28;20514;-54
2021/12/23 07:20:34;;;;;;;21.17;15.10;;;6.40;99.90;;;;;;5068842;28;20063;-56
2021/12/23 07:23:01;;;;;;;22.77;15.80;;;6.40;99.90;;;;;;5067525;28;20024;-55
2021/12/23 07:25:27;;;;;;;19.38;15.32;;;6.40;99.90;;;;;;5067826;28;20032;-56
2021/12/23 07:27:53;;;;;;;23.02;14.60;;;6.30;99.90;;;;;;5071545;28;20162;-53
2021/12/23 07:30:20;;;;;;;22.38;15.75;;;6.30;99.90;;;;;;5068542;28;20040;-55
2021/12/23 07:32:48;;;;;;;19.80;14.98;;;6.30;99.90;;;;;;5067445;28;20049;-55
2021/12/23 07:35:14;;;;;;;19.35;15.63;;;6.30;99.90;;;;;;5067285;28;20029;-56
2021/12/23 07:37:40;;;;;;;34.53;24.33;;;6.40;99.90;;;;;;5067824;28;20040;-51
2021/12/23 07:40:07;;;;;;;25.15;18.10;;;6.30;99.90;;;;;;5070431;28;20036;-55
2021/12/23 07:42:34;;;;;;;23.98;17.60;;;6.30;99.90;;;;;;5069699;28;20066;-52
2021/12/23 07:45:01;;;;;;;24.77;19.20;;;6.30;99.90;;;;;;5067543;28;20536;-53
2021/12/23 07:47:29;;;;;;;23.75;18.48;;;6.50;99.90;;;;;;5067578;28;20024;-54
2021/12/23 07:49:55;;;;;;;24.30;17.77;;;6.30;99.90;;;;;;5068835;28;20028;-55
2021/12/23 07:52:21;;;;;;;21.35;16.08;;;6.30;99.90;;;;;;5067954;28;20024;-53
2021/12/23 07:54:47;;;;;;;47.38;34.92;;;6.40;99.90;;;;;;5071013;28;20506;-56
2021/12/23 07:57:13;;;;;;;24.10;16.88;;;6.30;99.90;;;;;;5067167;28;20032;-55
2021/12/23 07:59:39;;;;;;;50.63;34.47;;;6.40;99.90;;;;;;5068735;28;20528;-56
2021/12/23 08:02:04;;;;;;;52.20;36.45;;;6.40;99.90;;;;;;5067324;28;20039;-54
2021/12/23 08:04:33;;;;;;;43.95;33.80;;;6.50;99.90;;;;;;5067256;28;20017;-53
2021/12/23 08:07:02;;;;;;;20.35;16.33;;;6.50;99.90;;;;;;5070140;28;20499;-54
2021/12/23 08:09:28;;;;;;;23.27;16.77;;;6.60;99.90;;;;;;5070798;28;20028;-54
2021/12/23 08:11:53;;;;;;;41.80;30.13;;;6.70;99.90;;;;;;5067126;28;20128;-55
2021/12/23 08:14:20;;;;;;;32.83;26.42;;;6.80;99.90;;;;;;5067444;28;20025;-55
2021/12/23 08:16:46;;;;;;;83.05;64.30;;;6.80;99.90;;;;;;5067420;28;20028;-54
2021/12/23 08:19:12;;;;;;;18.48;15.48;;;7.50;99.90;;;;;;5068319;28;20037;-54
2021/12/23 08:21:38;;;;;;;18.83;15.50;;;8.40;99.90;;;;;;5068600;28;20079;-51
2021/12/23 08:24:04;;;;;;;19.33;13.45;;;8.70;99.90;;;;;;5066957;28;20020;-56
2021/12/23 08:26:39;;;;;;;18.52;12.65;;;8.50;99.90;;;;;;5067883;28;20514;-56
2021/12/23 08:29:05;;;;;;;16.45;12.43;;;8.90;99.90;;;;;;5064988;28;20103;-55
2021/12/23 08:31:31;;;;;;;15.85;11.50;;;10.30;99.90;;;;;;5064842;28;20545;-55
2021/12/23 08:33:56;;;;;;;15.27;12.35;;;11.30;99.90;;;;;;5066372;28;20071;-55
2021/12/23 08:36:22;;;;;;;20.40;10.77;;;11.40;99.90;;;;;;5068492;28;20104;-55
2021/12/23 08:38:48;;;;;;;13.68;10.77;;;11.90;99.90;;;;;;5067423;28;20093;-56
2021/12/23 08:41:15;;;;;;;15.20;11.07;;;11.60;99.90;;;;;;5070747;28;20458;-55
2021/12/23 08:43:41;;;;;;;15.43;11.05;;;11.90;99.90;;;;;;5068586;28;20033;-54
2021/12/23 08:46:07;;;;;;;14.00;10.70;;;12.20;99.90;;;;;;5066588;28;20025;-55
2021/12/23 08:48:32;;;;;;;15.40;10.10;;;13.00;99.90;;;;;;5061249;28;20037;-54
2021/12/23 08:50:58;;;;;;;13.98;10.60;;;13.00;99.90;;;;;;5052884;28;20033;-52
2021/12/23 08:53:24;;;;;;;14.43;10.60;;;12.70;99.90;;;;;;5058233;28;20025;-49
2021/12/23 08:55:50;;;;;;;14.23;9.90;;;13.20;99.90;;;;;;5059718;28;20387;-55
2021/12/23 08:58:15;;;;;;;12.05;9.27;;;13.60;99.90;;;;;;5066551;28;20037;-51
2021/12/23 09:00:41;;;;;;;15.25;9.95;;;13.40;99.90;;;;;;5055938;28;20044;-55
2021/12/23 09:03:09;;;;;;;12.18;9.45;;;14.20;99.90;;;;;;5052048;28;20056;-56
2021/12/23 09:05:40;;;;;;;11.55;9.65;;;14.20;99.90;;;;;;5051712;28;20514;-54
2021/12/23 09:08:07;;;;;;;11.00;8.75;;;14.20;99.90;;;;;;5059973;28;20027;-56
2021/12/23 09:10:34;;;;;;;13.40;8.85;;;14.50;99.90;;;;;;5068056;28;20503;-56
2021/12/23 09:12:59;;;;;;;11.75;8.70;;;14.10;99.90;;;;;;5060708;28;20025;-57
2021/12/23 09:15:26;;;;;;;14.20;8.77;;;14.00;99.90;;;;;;5064228;28;20074;-58
2021/12/23 09:17:51;;;;;;;11.63;8.43;;;13.90;99.90;;;;;;5055707;28;20492;-57
2021/12/23 09:20:19;;;;;;;10.35;8.82;;;15.00;99.90;;;;;;5062750;28;20128;-55
2021/12/23 09:22:45;;;;;;;13.60;8.00;;;15.30;99.90;;;;;;5058273;28;20510;-52
2021/12/23 09:25:22;;;;;;;10.93;8.27;;;15.40;99.90;;;;;;5055268;28;20035;-56
2021/12/23 09:33:15;;;;;;;11.30;8.05;;;15.80;99.90;;;;;;5069168;28;20075;-58
2021/12/23 09:35:41;;;;;;;11.68;8.18;;;15.50;99.90;;;;;;5068407;28;20498;-56
2021/12/23 09:38:07;;;;;;;12.07;8.27;;;15.60;99.90;;;;;;5069572;28;20024;-58
2021/12/23 09:40:34;;;;;;;11.00;7.85;;;16.00;99.90;;;;;;5069397;28;20083;-57
2021/12/23 09:43:07;;;;;;;12.65;7.80;;;16.40;99.90;;;;;;5072168;28;20103;-57
2021/12/23 09:45:35;;;;;;;12.40;7.63;;;16.40;99.90;;;;;;5070924;28;20490;-53
2021/12/23 09:48:02;;;;;;;11.40;7.53;;;16.00;99.90;;;;;;5068593;28;20441;-57
2021/12/23 09:50:29;;;;;;;9.07;7.10;;;;;;;;;;5060594;28;20470;-56
2021/12/23 09:52:56;;;;;;;9.85;6.82;;;17.10;99.90;;;;;;5069619;28;20017;-57
2021/12/23 09:55:25;;;;;;;9.05;6.82;;;17.30;99.90;;;;;;5062495;28;20041;-54
2021/12/23 09:57:53;;;;;;;7.60;6.80;;;16.50;99.90;;;;;;5071461;28;20021;-56
2021/12/23 10:00:22;;;;;;;9.98;6.68;;;17.10;99.90;;;;;;5065408;28;20032;-57
2021/12/23 10:02:49;;;;;;;9.20;6.82;;;17.70;99.90;;;;;;5070056;28;20403;-57
2021/12/23 10:05:18;;;;;;;11.32;7.63;;;16.50;99.90;;;;;;5072608;28;20025;-57
2021/12/23 10:07:46;;;;;;;9.15;7.05;;;15.70;99.90;;;;;;5068385;28;20081;-57
2021/12/23 10:10:40;;;;;;;8.32;6.60;;;16.20;99.90;;;;;;5069154;28;20036;-57
2021/12/23 10:38:34;;;;;;;7.30;5.95;;;16.50;99.90;;;;;;5046074;28;20032;-57
2021/12/23 10:41:24;;;;;;;7.80;6.07;;;16.90;99.90;;;;;;5048422;28;20036;-54
2021/12/23 10:43:56;;;;;;;17.40;14.18;;;16.90;99.90;;;;;;5047454;28;20460;-56
2021/12/23 10:46:25;;;;;;;9.57;6.40;;;17.10;99.90;;;;;;5048938;28;20431;-57
2021/12/23 10:52:17;;;;;;;7.10;5.75;;;16.90;99.90;;;;;;5045077;28;20036;-55
2021/12/23 11:00:17;;;;;;;9.30;5.63;;;16.30;99.90;;;;;;5014808;28;20122;-57
2021/12/23 11:03:05;;;;;;;7.68;6.40;;;16.60;99.90;;;;;;5012827;28;20033;-57
2021/12/23 11:05:37;;;;;;;8.38;5.60;;;16.50;99.90;;;;;;5026672;28;20030;-56
2021/12/23 11:10:52;;;;;;;10.02;5.72;;;16.50;99.90;;;;;;5066995;28;20028;-58
2021/12/23 11:35:46;;;;;;;9.82;5.18;;;17.20;99.90;;;;;;5061169;28;20044;-58
2021/12/23 11:38:58;;;;;;;7.53;5.15;;;16.90;99.90;;;;;;5071170;28;20185;-57
2021/12/23 11:43:56;;;;;;;6.55;4.90;;;17.10;99.90;;;;;;5068403;28;20533;-57
2021/12/23 11:46:32;;;;;;;8.88;4.65;;;16.90;99.90;;;;;;5066595;28;20035;-57
2021/12/23 11:49:01;;;;;;;7.43;4.70;;;17.30;99.90;;;;;;5067196;28;20403;-57
2021/12/23 11:51:32;;;;;;;8.75;4.72;;;17.30;99.90;;;;;;5068121;28;20032;-55
2021/12/23 11:54:04;;;;;;;8.25;5.00;;;17.10;99.90;;;;;;5062385;28;20029;-57
2021/12/23 11:56:34;;;;;;;6.57;4.97;;;16.70;99.90;;;;;;5052987;28;20025;-56
2021/12/23 11:59:03;;;;;;;7.22;4.93;;;16.20;99.90;;;;;;5070490;28;20028;-56
2021/12/23 12:01:40;;;;;;;7.95;4.80;;;16.60;99.90;;;;;;5066511;28;20061;-57
2021/12/23 12:04:08;;;;;;;8.27;5.32;;;16.70;99.90;;;;;;5066766;28;20494;-57
2021/12/23 12:06:45;;;;;;;5.22;4.53;;;16.80;99.90;;;;;;5061716;28;20029;-54
2021/12/23 12:09:19;;;;;;;6.60;4.40;;;17.30;99.90;;;;;;5056013;28;20025;-57
2021/12/23 12:12:09;;;;;;;6.57;4.47;;;16.80;99.90;;;;;;5055887;28;20033;-57
2021/12/23 12:14:40;;;;;;;7.45;4.68;;;16.60;99.90;;;;;;5046220;28;20040;-57
2021/12/23 12:17:36;;;;;;;7.32;4.53;;;16.90;99.90;;;;;;5057585;28;20395;-56
2021/12/23 12:21:02;;;;;;;6.80;4.90;;;16.60;99.90;;;;;;5060878;28;20053;-57
2021/12/23 12:23:31;;;;;;;5.97;4.47;;;16.80;99.90;;;;;;5060460;28;20127;-57
2021/12/23 12:26:03;;;;;;;6.15;4.18;;;16.80;99.90;;;;;;5061612;28;20481;-56
2021/12/23 12:28:38;;;;;;;6.03;4.40;;;16.90;99.90;;;;;;5064631;28;20510;-57
2021/12/23 12:31:14;;;;;;;5.72;4.30;;;17.10;99.90;;;;;;5066523;28;20510;-57
2021/12/23 12:33:45;;;;;;;5.68;4.00;;;17.20;99.90;;;;;;5064746;28;20040;-57
2021/12/23 12:36:16;;;;;;;10.35;4.80;;;17.00;99.90;;;;;;5065319;28;20514;-57
2021/12/23 12:38:46;;;;;;;8.02;4.43;;;16.80;99.90;;;;;;5069487;28;20023;-57
2021/12/23 12:41:23;;;;;;;5.88;4.50;;;16.70;99.90;;;;;;5069739;28;20396;-57
2021/12/23 12:44:04;;;;;;;7.00;4.40;;;16.60;99.90;;;;;;5072537;28;20111;-57
2021/12/23 12:46:36;;;;;;;8.27;4.65;;;16.50;99.90;;;;;;5067854;28;20020;-56
2021/12/23 12:49:25;;;;;;;5.68;4.20;;;16.60;99.90;;;;;;5071143;28;20032;-55
2021/12/23 12:51:53;;;;;;;6.05;4.40;;;16.50;99.90;;;;;;5064263;28;20099;-57
2021/12/23 12:54:32;;;;;;;7.72;4.35;;;16.40;99.90;;;;;;5071497;28;20020;-56
2021/12/23 12:57:05;;;;;;;5.47;4.38;;;16.60;99.90;;;;;;5071700;28;20032;-56
2021/12/23 12:59:36;;;;;;;5.60;4.38;;;16.50;99.90;;;;;;5072053;28;20032;-52
2021/12/23 13:02:17;;;;;;;5.80;4.03;;;16.80;99.90;;;;;;5070176;28;20032;-57
2021/12/23 13:04:50;;;;;;;4.55;4.00;;;16.90;99.90;;;;;;5070369;28;22940;-57
2021/12/23 13:07:34;;;;;;;5.67;4.20;;;16.70;99.90;;;;;;5071532;28;20086;-57
2021/12/23 13:10:17;;;;;;;7.35;4.50;;;16.60;99.90;;;;;;5069586;28;20032;-57
2021/12/23 13:12:55;;;;;;;7.22;4.40;;;16.70;99.90;;;;;;5073063;28;20441;-57
2021/12/23 13:15:35;;;;;;;5.40;4.18;;;16.60;99.90;;;;;;5071592;28;20032;-57
2021/12/23 13:18:17;;;;;;;6.95;4.50;;;16.80;99.90;;;;;;5070033;28;20394;-57
2021/12/23 13:20:48;;;;;;;5.70;4.10;;;16.70;99.90;;;;;;5069861;28;20036;-57
2021/12/23 13:23:32;;;;;;;5.50;3.90;;;16.70;99.90;;;;;;5071233;28;20394;-58
2021/12/23 13:26:04;;;;;;;8.68;4.47;;;16.60;99.90;;;;;;5069654;28;20503;-57
2021/12/23 13:28:41;;;;;;;7.38;4.15;;;16.50;99.90;;;;;;5070023;28;20032;-58
2021/12/23 13:31:16;;;;;;;5.93;4.00;;;16.70;99.90;;;;;;5072327;28;20024;-57
2021/12/23 13:33:45;;;;;;;6.10;4.00;;;16.40;99.90;;;;;;5073382;28;20052;-57
2021/12/23 13:36:23;;;;;;;6.28;4.10;;;16.20;99.90;;;;;;5071216;28;20027;-58
2021/12/23 13:38:56;;;;;;;9.20;4.18;;;16.30;99.90;;;;;;5070878;28;20055;-57
2021/12/23 13:41:28;;;;;;;6.63;4.28;;;16.20;99.90;;;;;;5069585;28;20036;-57
2021/12/23 13:44:14;;;;;;;7.07;4.07;;;16.20;99.90;;;;;;5069771;28;20032;-57
2021/12/23 13:46:46;;;;;;;7.22;3.92;;;16.30;99.90;;;;;;5057054;28;20037;-57
2021/12/23 13:49:12;;;;;;;8.52;6.47;;;16.20;99.90;;;;;;5071335;28;20035;-57
2021/12/23 13:51:41;;;;;;;14.85;10.52;;;16.00;99.90;;;;;;5071913;28;20498;-56
2021/12/23 13:54:13;;;;;;;7.28;4.45;;;16.20;99.90;;;;;;5069878;28;20496;-57
2021/12/23 13:56:46;;;;;;;5.95;4.30;;;16.20;99.90;;;;;;5069714;28;20031;-57
2021/12/23 13:59:25;;;;;;;7.43;4.20;;;16.30;99.90;;;;;;5069579;28;20031;-57